Ava, Missouri
Current Conditions -  °F | °C
As of 12:45 PM on Friday 28 Nov 2014 (Local Time) from KBBG Reporting Station
Clear Clear  
Wind Chill: 15°   Ceiling: Unl
Heat Index: 15°   Visibility: 10mi
Dew Point:   Wind: 12mph
Humidity: 36%   Direction: 190°S
Pressure: 30.04"   Gusts: 16mph
Location:  36.95°N, 92.66°W
Report Text: KBBG 281845Z 19010G14KT 10SM SKC 15/00 A3004
Loading
Personal Weather Stations






























Interactive Weather Map New forecast layout! Learn more

10-Day Weather Forecast

Advertisements
Track Severe Weather on mobile